sensor_id;sensor_type;location;lat;lon;timestamp;pressure;altitude;pressure_sealevel;temperature;humidity
38197;BME280;26543;51.976;4.616;2023-02-13T00:00:32;53044.28;;;-140.72;100.00
38197;BME280;26543;51.976;4.616;2023-02-13T00:02:58;53097.06;;;-140.72;100.00
38197;BME280;26543;51.976;4.616;2023-02-13T00:05:23;53080.81;;;-140.72;100.00
38197;BME280;26543;51.976;4.616;2023-02-13T00:07:49;53068.66;;;-140.72;100.00
38197;BME280;26543;51.976;4.616;2023-02-13T00:10:14;53076.75;;;-140.72;100.00
38197;BME280;26543;51.976;4.616;2023-02-13T00:12:40;53080.81;;;-140.72;100.00
38197;BME280;26543;51.976;4.616;2023-02-13T00:15:06;53038.19;;;-140.72;100.00
38197;BME280;26543;51.976;4.616;2023-02-13T00:17:32;53068.66;;;-140.72;100.00
38197;BME280;26543;51.976;4.616;2023-02-13T00:20:00;53070.69;;;-140.72;100.00
38197;BME280;26543;51.976;4.616;2023-02-13T00:22:26;53093.00;;;-140.72;100.00
38197;BME280;26543;51.976;4.616;2023-02-13T00:24:51;53088.94;;;-140.72;100.00
38197;BME280;26543;51.976;4.616;2023-02-13T00:27:16;53044.28;;;-140.72;100.00
38197;BME280;26543;51.976;4.616;2023-02-13T00:29:42;53070.69;;;-140.72;100.00
38197;BME280;26543;51.976;4.616;2023-02-13T00:32:07;53050.38;;;-140.72;100.00
38197;BME280;26543;51.976;4.616;2023-02-13T00:34:33;53076.75;;;-140.72;100.00
38197;BME280;26543;51.976;4.616;2023-02-13T00:36:58;53088.94;;;-140.72;100.00
38197;BME280;26543;51.976;4.616;2023-02-13T00:39:24;53038.19;;;-140.72;100.00
38197;BME280;26543;51.976;4.616;2023-02-13T00:41:49;53097.06;;;-140.72;100.00
38197;BME280;26543;51.976;4.616;2023-02-13T00:44:15;53078.78;;;-140.72;100.00
38197;BME280;26543;51.976;4.616;2023-02-13T00:46:40;53038.19;;;-140.72;100.00
38197;BME280;26543;51.976;4.616;2023-02-13T00:49:06;53046.31;;;-140.72;100.00
38197;BME280;26543;51.976;4.616;2023-02-13T00:51:31;53076.75;;;-140.72;100.00
38197;BME280;26543;51.976;4.616;2023-02-13T00:53:57;53062.56;;;-140.72;100.00
38197;BME280;26543;51.976;4.616;2023-02-13T00:56:22;53074.72;;;-140.72;100.00
38197;BME280;26543;51.976;4.616;2023-02-13T00:58:48;53086.91;;;-140.72;100.00
38197;BME280;26543;51.976;4.616;2023-02-13T01:01:13;53042.25;;;-140.72;100.00
38197;BME280;26543;51.976;4.616;2023-02-13T01:03:39;53064.59;;;-140.72;100.00
38197;BME280;26543;51.976;4.616;2023-02-13T01:06:05;53068.66;;;-140.72;100.00
38197;BME280;26543;51.976;4.616;2023-02-13T01:08:31;53078.78;;;-140.72;100.00
38197;BME280;26543;51.976;4.616;2023-02-13T01:10:56;53048.34;;;-140.72;100.00
38197;BME280;26543;51.976;4.616;2023-02-13T01:13:23;53050.38;;;-140.72;100.00
38197;BME280;26543;51.976;4.616;2023-02-13T01:15:49;53082.84;;;-140.72;100.00
38197;BME280;26543;51.976;4.616;2023-02-13T01:18:17;53074.72;;;-140.72;100.00
38197;BME280;26543;51.976;4.616;2023-02-13T01:20:43;53080.81;;;-140.72;100.00
38197;BME280;26543;51.976;4.616;2023-02-13T01:23:10;53070.69;;;-140.72;100.00
38197;BME280;26543;51.976;4.616;2023-02-13T01:25:40;53101.13;;;-140.72;100.00
38197;BME280;26543;51.976;4.616;2023-02-13T01:28:05;53066.63;;;-140.72;100.00
38197;BME280;26543;51.976;4.616;2023-02-13T01:30:31;53054.44;;;-140.72;100.00
38197;BME280;26543;51.976;4.616;2023-02-13T01:32:56;53078.78;;;-140.72;100.00
38197;BME280;26543;51.976;4.616;2023-02-13T01:35:21;53050.38;;;-140.72;100.00
38197;BME280;26543;51.976;4.616;2023-02-13T01:37:47;53048.34;;;-140.72;100.00
38197;BME280;26543;51.976;4.616;2023-02-13T01:40:13;53105.19;;;-140.72;100.00
38197;BME280;26543;51.976;4.616;2023-02-13T01:42:38;53062.56;;;-140.72;100.00
38197;BME280;26543;51.976;4.616;2023-02-13T01:47:40;53064.59;;;-140.72;100.00
38197;BME280;26543;51.976;4.616;2023-02-13T01:52:56;53030.09;;;-140.72;100.00
38197;BME280;26543;51.976;4.616;2023-02-13T01:55:24;53093.00;;;-140.72;100.00
38197;BME280;26543;51.976;4.616;2023-02-13T01:57:56;53064.59;;;-140.72;100.00
38197;BME280;26543;51.976;4.616;2023-02-13T02:00:23;53082.84;;;-140.72;100.00
38197;BME280;26543;51.976;4.616;2023-02-13T02:03:07;53060.53;;;-140.72;100.00
38197;BME280;26543;51.976;4.616;2023-02-13T02:05:38;53060.53;;;-140.72;100.00
38197;BME280;26543;51.976;4.616;2023-02-13T02:08:08;53084.88;;;-140.72;100.00
38197;BME280;26543;51.976;4.616;2023-02-13T02:10:35;53095.03;;;-140.72;100.00
38197;BME280;26543;51.976;4.616;2023-02-13T02:13:09;53052.41;;;-140.72;100.00
38197;BME280;26543;51.976;4.616;2023-02-13T02:15:39;53064.59;;;-140.72;100.00
38197;BME280;26543;51.976;4.616;2023-02-13T02:18:18;53088.94;;;-140.72;100.00
38197;BME280;26543;51.976;4.616;2023-02-13T02:32:46;53082.84;;;-140.72;100.00
38197;BME280;26543;51.976;4.616;2023-02-13T02:35:14;53068.66;;;-140.72;100.00
38197;BME280;26543;51.976;4.616;2023-02-13T02:38:01;53048.34;;;-140.72;100.00
38197;BME280;26543;51.976;4.616;2023-02-13T02:48:25;53054.44;;;-140.72;100.00
38197;BME280;26543;51.976;4.616;2023-02-13T02:51:22;53084.88;;;-140.72;100.00
38197;BME280;26543;51.976;4.616;2023-02-13T02:56:40;53082.84;;;-140.72;100.00
38197;BME280;26543;51.976;4.616;2023-02-13T02:59:14;53078.78;;;-140.72;100.00
38197;BME280;26543;51.976;4.616;2023-02-13T03:02:02;53060.53;;;-140.72;100.00
38197;BME280;26543;51.976;4.616;2023-02-13T03:04:50;53064.59;;;-140.72;100.00
38197;BME280;26543;51.976;4.616;2023-02-13T03:07:36;53115.31;;;-140.72;100.00
38197;BME280;26543;51.976;4.616;2023-02-13T03:10:11;53044.28;;;-140.72;100.00
38197;BME280;26543;51.976;4.616;2023-02-13T03:13:12;53068.66;;;-140.72;100.00
38197;BME280;26543;51.976;4.616;2023-02-13T03:15:43;53088.94;;;-140.72;100.00
38197;BME280;26543;51.976;4.616;2023-02-13T03:18:34;53072.69;;;-140.72;100.00
38197;BME280;26543;51.976;4.616;2023-02-13T03:27:13;53078.78;;;-140.72;100.00
38197;BME280;26543;51.976;4.616;2023-02-13T03:35:52;53109.22;;;-140.72;100.00
38197;BME280;26543;51.976;4.616;2023-02-13T03:41:14;53088.94;;;-140.72;100.00
38197;BME280;26543;51.976;4.616;2023-02-13T03:46:33;53086.91;;;-140.72;100.00
38197;BME280;26543;51.976;4.616;2023-02-13T03:49:02;53090.97;;;-140.72;100.00
38197;BME280;26543;51.976;4.616;2023-02-13T03:52:12;53072.69;;;-140.72;100.00
38197;BME280;26543;51.976;4.616;2023-02-13T03:54:44;53040.22;;;-140.72;100.00
38197;BME280;26543;51.976;4.616;2023-02-13T03:57:33;53084.88;;;-140.72;100.00
38197;BME280;26543;51.976;4.616;2023-02-13T04:00:19;53107.19;;;-140.72;100.00
38197;BME280;26543;51.976;4.616;2023-02-13T04:02:58;53024.00;;;-140.72;100.00
38197;BME280;26543;51.976;4.616;2023-02-13T04:05:28;53066.63;;;-140.72;100.00
38197;BME280;26543;51.976;4.616;2023-02-13T04:07:55;53062.56;;;-140.72;100.00
38197;BME280;26543;51.976;4.616;2023-02-13T04:10:21;53086.91;;;-140.72;100.00
38197;BME280;26543;51.976;4.616;2023-02-13T04:15:40;53093.00;;;-140.72;100.00
38197;BME280;26543;51.976;4.616;2023-02-13T04:20:37;53054.44;;;-140.72;100.00
38197;BME280;26543;51.976;4.616;2023-02-13T04:23:05;53070.69;;;-140.72;100.00
38197;BME280;26543;51.976;4.616;2023-02-13T04:25:31;53123.44;;;-140.72;100.00
38197;BME280;26543;51.976;4.616;2023-02-13T04:27:56;53082.84;;;-140.72;100.00
38197;BME280;26543;51.976;4.616;2023-02-13T04:30:22;53084.88;;;-140.72;100.00
38197;BME280;26543;51.976;4.616;2023-02-13T04:32:47;53072.69;;;-140.72;100.00
38197;BME280;26543;51.976;4.616;2023-02-13T04:35:13;53084.88;;;-140.72;100.00
38197;BME280;26543;51.976;4.616;2023-02-13T04:37:39;53088.94;;;-140.72;100.00
38197;BME280;26543;51.976;4.616;2023-02-13T04:40:04;53062.56;;;-140.72;100.00
38197;BME280;26543;51.976;4.616;2023-02-13T04:42:39;53137.66;;;-140.72;100.00
38197;BME280;26543;51.976;4.616;2023-02-13T04:45:05;53131.56;;;-140.72;100.00
38197;BME280;26543;51.976;4.616;2023-02-13T04:47:30;53113.28;;;-140.72;100.00
38197;BME280;26543;51.976;4.616;2023-02-13T04:50:02;53068.66;;;-140.72;100.00
38197;BME280;26543;51.976;4.616;2023-02-13T04:52:27;53042.25;;;-140.72;100.00
38197;BME280;26543;51.976;4.616;2023-02-13T04:54:55;53090.97;;;-140.72;100.00
38197;BME280;26543;51.976;4.616;2023-02-13T04:57:21;53080.81;;;-140.72;100.00
38197;BME280;26543;51.976;4.616;2023-02-13T04:59:46;53111.25;;;-140.72;100.00
38197;BME280;26543;51.976;4.616;2023-02-13T05:02:12;53052.41;;;-140.72;100.00
38197;BME280;26543;51.976;4.616;2023-02-13T05:04:37;53084.88;;;-140.72;100.00
38197;BME280;26543;51.976;4.616;2023-02-13T05:07:02;53070.69;;;-140.72;100.00
38197;BME280;26543;51.976;4.616;2023-02-13T05:09:28;53084.88;;;-140.72;100.00
38197;BME280;26543;51.976;4.616;2023-02-13T05:11:53;53072.69;;;-140.72;100.00
38197;BME280;26543;51.976;4.616;2023-02-13T05:14:19;53070.69;;;-140.72;100.00
38197;BME280;26543;51.976;4.616;2023-02-13T05:16:45;53093.00;;;-140.72;100.00
38197;BME280;26543;51.976;4.616;2023-02-13T05:19:10;53103.16;;;-140.72;100.00
38197;BME280;26543;51.976;4.616;2023-02-13T05:21:35;53117.34;;;-140.72;100.00
38197;BME280;26543;51.976;4.616;2023-02-13T05:24:20;53060.53;;;-140.72;100.00
38197;BME280;26543;51.976;4.616;2023-02-13T05:26:45;53088.94;;;-140.72;100.00
38197;BME280;26543;51.976;4.616;2023-02-13T05:29:10;53066.63;;;-140.72;100.00
38197;BME280;26543;51.976;4.616;2023-02-13T05:31:51;53076.75;;;-140.72;100.00
38197;BME280;26543;51.976;4.616;2023-02-13T05:34:25;53072.69;;;-140.72;100.00
38197;BME280;26543;51.976;4.616;2023-02-13T05:36:51;53117.34;;;-140.72;100.00
38197;BME280;26543;51.976;4.616;2023-02-13T05:39:17;53088.94;;;-140.72;100.00
38197;BME280;26543;51.976;4.616;2023-02-13T05:41:43;53093.00;;;-140.72;100.00
38197;BME280;26543;51.976;4.616;2023-02-13T05:44:12;53086.91;;;-140.72;100.00
38197;BME280;26543;51.976;4.616;2023-02-13T05:46:39;53060.53;;;-140.72;100.00
38197;BME280;26543;51.976;4.616;2023-02-13T05:49:05;53090.97;;;-140.72;100.00
38197;BME280;26543;51.976;4.616;2023-02-13T05:51:31;53101.13;;;-140.72;100.00
38197;BME280;26543;51.976;4.616;2023-02-13T05:53:57;53070.69;;;-140.72;100.00
38197;BME280;26543;51.976;4.616;2023-02-13T05:56:23;53097.06;;;-140.72;100.00
38197;BME280;26543;51.976;4.616;2023-02-13T05:58:53;53093.00;;;-140.72;100.00
38197;BME280;26543;51.976;4.616;2023-02-13T06:01:23;53080.81;;;-140.72;100.00
38197;BME280;26543;51.976;4.616;2023-02-13T06:03:49;53084.88;;;-140.72;100.00
38197;BME280;26543;51.976;4.616;2023-02-13T06:06:14;53072.69;;;-140.72;100.00
38197;BME280;26543;51.976;4.616;2023-02-13T06:08:50;53113.28;;;-140.72;100.00
38197;BME280;26543;51.976;4.616;2023-02-13T06:11:21;53109.22;;;-140.72;100.00
38197;BME280;26543;51.976;4.616;2023-02-13T06:13:47;53090.97;;;-140.72;100.00
38197;BME280;26543;51.976;4.616;2023-02-13T06:16:12;53080.81;;;-140.72;100.00
38197;BME280;26543;51.976;4.616;2023-02-13T06:18:38;53105.19;;;-140.72;100.00
38197;BME280;26543;51.976;4.616;2023-02-13T06:21:04;53101.13;;;-140.72;100.00
38197;BME280;26543;51.976;4.616;2023-02-13T06:23:30;53093.00;;;-140.72;100.00
38197;BME280;26543;51.976;4.616;2023-02-13T06:26:01;53088.94;;;-140.72;100.00
38197;BME280;26543;51.976;4.616;2023-02-13T06:28:26;53060.53;;;-140.72;100.00
38197;BME280;26543;51.976;4.616;2023-02-13T06:30:53;53117.34;;;-140.72;100.00
38197;BME280;26543;51.976;4.616;2023-02-13T06:33:18;53078.78;;;-140.72;100.00
38197;BME280;26543;51.976;4.616;2023-02-13T06:35:43;53097.06;;;-140.72;100.00
38197;BME280;26543;51.976;4.616;2023-02-13T06:38:09;53097.06;;;-140.72;100.00
38197;BME280;26543;51.976;4.616;2023-02-13T06:40:34;53084.88;;;-140.72;100.00
38197;BME280;26543;51.976;4.616;2023-02-13T06:42:59;53078.78;;;-140.72;100.00
38197;BME280;26543;51.976;4.616;2023-02-13T06:45:25;53068.66;;;-140.72;100.00
38197;BME280;26543;51.976;4.616;2023-02-13T06:47:50;53076.75;;;-140.72;100.00
38197;BME280;26543;51.976;4.616;2023-02-13T06:50:16;53064.59;;;-140.72;100.00
38197;BME280;26543;51.976;4.616;2023-02-13T06:52:49;53097.06;;;-140.72;100.00
38197;BME280;26543;51.976;4.616;2023-02-13T06:55:16;53105.19;;;-140.72;100.00
38197;BME280;26543;51.976;4.616;2023-02-13T06:57:42;53109.22;;;-140.72;100.00
38197;BME280;26543;51.976;4.616;2023-02-13T07:00:09;53109.22;;;-140.72;100.00
38197;BME280;26543;51.976;4.616;2023-02-13T07:02:38;53121.41;;;-140.72;100.00
38197;BME280;26543;51.976;4.616;2023-02-13T07:05:04;53109.22;;;-140.72;100.00
38197;BME280;26543;51.976;4.616;2023-02-13T07:07:33;53062.56;;;-140.72;100.00
38197;BME280;26543;51.976;4.616;2023-02-13T07:09:59;53050.38;;;-140.72;100.00
38197;BME280;26543;51.976;4.616;2023-02-13T07:12:25;53082.84;;;-140.72;100.00
38197;BME280;26543;51.976;4.616;2023-02-13T07:14:53;53113.28;;;-140.72;100.00
38197;BME280;26543;51.976;4.616;2023-02-13T07:17:18;53060.53;;;-140.72;100.00
38197;BME280;26543;51.976;4.616;2023-02-13T07:19:44;53080.81;;;-140.72;100.00
38197;BME280;26543;51.976;4.616;2023-02-13T07:22:09;53056.47;;;-140.72;100.00
38197;BME280;26543;51.976;4.616;2023-02-13T07:24:35;53090.97;;;-140.72;100.00
38197;BME280;26543;51.976;4.616;2023-02-13T07:27:03;53068.66;;;-140.72;100.00
38197;BME280;26543;51.976;4.616;2023-02-13T07:29:29;53125.47;;;-140.72;100.00
38197;BME280;26543;51.976;4.616;2023-02-13T07:31:54;53117.34;;;-140.72;100.00
38197;BME280;26543;51.976;4.616;2023-02-13T07:34:19;53080.81;;;-140.72;100.00
38197;BME280;26543;51.976;4.616;2023-02-13T07:36:45;53117.34;;;-140.72;100.00
38197;BME280;26543;51.976;4.616;2023-02-13T07:39:10;53125.47;;;-140.72;100.00
38197;BME280;26543;51.976;4.616;2023-02-13T07:41:35;53147.78;;;-140.72;100.00
38197;BME280;26543;51.976;4.616;2023-02-13T07:44:01;53121.41;;;-140.72;100.00
38197;BME280;26543;51.976;4.616;2023-02-13T07:46:26;53121.41;;;-140.72;100.00
38197;BME280;26543;51.976;4.616;2023-02-13T07:48:51;53111.25;;;-140.72;100.00
38197;BME280;26543;51.976;4.616;2023-02-13T07:51:17;53121.41;;;-140.72;100.00
38197;BME280;26543;51.976;4.616;2023-02-13T07:53:42;53155.91;;;-140.72;100.00
38197;BME280;26543;51.976;4.616;2023-02-13T07:56:09;53117.34;;;-140.72;100.00
38197;BME280;26543;51.976;4.616;2023-02-13T07:58:36;53097.06;;;-140.72;100.00
38197;BME280;26543;51.976;4.616;2023-02-13T08:01:08;53097.06;;;-140.72;100.00
38197;BME280;26543;51.976;4.616;2023-02-13T08:03:34;53088.94;;;-140.72;100.00
38197;BME280;26543;51.976;4.616;2023-02-13T08:06:00;53105.19;;;-140.72;100.00
38197;BME280;26543;51.976;4.616;2023-02-13T08:08:26;53133.59;;;-140.72;100.00
38197;BME280;26543;51.976;4.616;2023-02-13T08:10:51;53133.59;;;-140.72;100.00
38197;BME280;26543;51.976;4.616;2023-02-13T08:13:35;53113.28;;;-140.72;100.00
38197;BME280;26543;51.976;4.616;2023-02-13T08:16:02;53127.50;;;-140.72;100.00
38197;BME280;26543;51.976;4.616;2023-02-13T08:18:28;53093.00;;;-140.72;100.00
38197;BME280;26543;51.976;4.616;2023-02-13T08:20:53;53117.34;;;-140.72;100.00
38197;BME280;26543;51.976;4.616;2023-02-13T08:23:19;53107.19;;;-140.72;100.00
38197;BME280;26543;51.976;4.616;2023-02-13T08:25:44;53157.94;;;-140.72;100.00
38197;BME280;26543;51.976;4.616;2023-02-13T08:28:12;53086.91;;;-140.72;100.00
38197;BME280;26543;51.976;4.616;2023-02-13T08:30:37;53115.31;;;-140.72;100.00
38197;BME280;26543;51.976;4.616;2023-02-13T08:33:03;53109.22;;;-140.72;100.00
38197;BME280;26543;51.976;4.616;2023-02-13T08:35:28;53129.53;;;-140.72;100.00
38197;BME280;26543;51.976;4.616;2023-02-13T08:37:55;53107.19;;;-140.72;100.00
38197;BME280;26543;51.976;4.616;2023-02-13T08:40:21;53113.28;;;-140.72;100.00
38197;BME280;26543;51.976;4.616;2023-02-13T08:42:50;53072.69;;;-140.72;100.00
38197;BME280;26543;51.976;4.616;2023-02-13T08:45:15;53084.88;;;-140.72;100.00
38197;BME280;26543;51.976;4.616;2023-02-13T08:47:40;53129.53;;;-140.72;100.00
38197;BME280;26543;51.976;4.616;2023-02-13T08:50:06;53111.25;;;-140.72;100.00
38197;BME280;26543;51.976;4.616;2023-02-13T08:52:32;53123.44;;;-140.72;100.00
38197;BME280;26543;51.976;4.616;2023-02-13T08:54:58;53052.41;;;-140.72;100.00
38197;BME280;26543;51.976;4.616;2023-02-13T08:57:23;53103.16;;;-140.72;100.00
38197;BME280;26543;51.976;4.616;2023-02-13T08:59:49;53088.94;;;-140.72;100.00
38197;BME280;26543;51.976;4.616;2023-02-13T09:02:14;53074.72;;;-140.72;100.00
38197;BME280;26543;51.976;4.616;2023-02-13T09:04:39;53101.13;;;-140.72;100.00
38197;BME280;26543;51.976;4.616;2023-02-13T09:07:05;53097.06;;;-140.72;100.00
38197;BME280;26543;51.976;4.616;2023-02-13T09:09:30;53080.81;;;-140.72;100.00
38197;BME280;26543;51.976;4.616;2023-02-13T09:11:56;53109.22;;;-140.72;100.00
38197;BME280;26543;51.976;4.616;2023-02-13T09:14:25;53090.97;;;-140.72;100.00
38197;BME280;26543;51.976;4.616;2023-02-13T09:16:51;53117.34;;;-140.72;100.00
38197;BME280;26543;51.976;4.616;2023-02-13T09:19:16;53060.53;;;-140.72;100.00
38197;BME280;26543;51.976;4.616;2023-02-13T09:21:41;53066.63;;;-140.72;100.00
38197;BME280;26543;51.976;4.616;2023-02-13T09:24:08;53072.69;;;-140.72;100.00
38197;BME280;26543;51.976;4.616;2023-02-13T09:26:34;53082.84;;;-140.72;100.00
38197;BME280;26543;51.976;4.616;2023-02-13T09:29:00;53019.94;;;-140.72;100.00
38197;BME280;26543;51.976;4.616;2023-02-13T09:31:25;53084.88;;;-140.72;100.00
38197;BME280;26543;51.976;4.616;2023-02-13T09:33:51;53074.72;;;-140.72;100.00
38197;BME280;26543;51.976;4.616;2023-02-13T09:36:19;53056.47;;;-140.72;100.00
38197;BME280;26543;51.976;4.616;2023-02-13T09:38:56;53109.22;;;-140.72;100.00
38197;BME280;26543;51.976;4.616;2023-02-13T09:43:58;53046.31;;;-140.72;100.00
38197;BME280;26543;51.976;4.616;2023-02-13T09:46:36;53060.53;;;-140.72;100.00
38197;BME280;26543;51.976;4.616;2023-02-13T09:49:11;53062.56;;;-140.72;100.00
38197;BME280;26543;51.976;4.616;2023-02-13T09:51:40;53074.72;;;-140.72;100.00
38197;BME280;26543;51.976;4.616;2023-02-13T09:54:07;53046.31;;;-140.72;100.00
38197;BME280;26543;51.976;4.616;2023-02-13T09:56:59;53019.94;;;-140.72;100.00
38197;BME280;26543;51.976;4.616;2023-02-13T09:59:49;53068.66;;;-140.72;100.00
38197;BME280;26543;51.976;4.616;2023-02-13T10:02:45;53028.06;;;-140.72;100.00
38197;BME280;26543;51.976;4.616;2023-02-13T10:10:39;53011.81;;;-140.72;100.00
38197;BME280;26543;51.976;4.616;2023-02-13T10:19:34;53019.94;;;-140.72;100.00
38197;BME280;26543;51.976;4.616;2023-02-13T10:24:49;53060.53;;;-140.72;100.00
38197;BME280;26543;51.976;4.616;2023-02-13T10:27:27;53021.97;;;-140.72;100.00
38197;BME280;26543;51.976;4.616;2023-02-13T10:29:59;53036.16;;;-140.72;100.00
38197;BME280;26543;51.976;4.616;2023-02-13T10:32:59;53058.50;;;-140.72;100.00
38197;BME280;26543;51.976;4.616;2023-02-13T10:35:49;53024.00;;;-140.72;100.00
38197;BME280;26543;51.976;4.616;2023-02-13T10:38:19;52995.59;;;-140.72;100.00
38197;BME280;26543;51.976;4.616;2023-02-13T10:44:17;53028.06;;;-140.72;100.00
38197;BME280;26543;51.976;4.616;2023-02-13T11:00:07;52985.44;;;-140.72;100.00
38197;BME280;26543;51.976;4.616;2023-02-13T11:02:37;52950.94;;;-140.72;100.00
38197;BME280;26543;51.976;4.616;2023-02-13T11:05:18;52991.53;;;-140.72;100.00
38197;BME280;26543;51.976;4.616;2023-02-13T11:07:46;53013.84;;;-140.72;100.00
38197;BME280;26543;51.976;4.616;2023-02-13T11:10:23;53030.09;;;-140.72;100.00
38197;BME280;26543;51.976;4.616;2023-02-13T11:12:50;53017.91;;;-140.72;100.00
38197;BME280;26543;51.976;4.616;2023-02-13T11:15:21;53019.94;;;-140.72;100.00
38197;BME280;26543;51.976;4.616;2023-02-13T11:17:48;53015.88;;;-140.72;100.00
38197;BME280;26543;51.976;4.616;2023-02-13T11:20:41;52979.34;;;-140.72;100.00
38197;BME280;26543;51.976;4.616;2023-02-13T11:28:21;52928.63;;;-140.72;100.00
38197;BME280;26543;51.976;4.616;2023-02-13T11:30:47;52910.34;;;-140.72;100.00
38197;BME280;26543;51.976;4.616;2023-02-13T11:35:41;52849.47;;;-140.72;100.00
38197;BME280;26543;51.976;4.616;2023-02-13T11:40:46;52780.47;;;-140.72;100.00
38197;BME280;26543;51.976;4.616;2023-02-13T11:43:36;52778.44;;;-140.72;100.00
38197;BME280;26543;51.976;4.616;2023-02-13T11:46:05;52721.63;;;-140.72;100.00
38197;BME280;26543;51.976;4.616;2023-02-13T11:48:32;52768.28;;;-140.72;0.00
38197;BME280;26543;51.976;4.616;2023-02-13T11:50:58;52705.38;;;-140.72;0.00
38197;BME280;26543;51.976;4.616;2023-02-13T11:53:29;52739.88;;;-140.72;0.00
38197;BME280;26543;51.976;4.616;2023-02-13T11:56:17;52674.94;;;-140.72;0.00
38197;BME280;26543;51.976;4.616;2023-02-13T11:58:42;52681.03;;;-140.72;0.00
38197;BME280;26543;51.976;4.616;2023-02-13T12:06:26;52664.81;;;-140.72;0.00
38197;BME280;26543;51.976;4.616;2023-02-13T12:08:52;52731.75;;;-140.72;0.00
38197;BME280;26543;51.976;4.616;2023-02-13T12:11:33;52705.38;;;-140.72;0.00
38197;BME280;26543;51.976;4.616;2023-02-13T12:14:00;52654.66;;;-140.72;0.00
38197;BME280;26543;51.976;4.616;2023-02-13T12:16:30;52605.94;;;-140.72;0.00
38197;BME280;26543;51.976;4.616;2023-02-13T12:19:01;52593.78;;;-140.72;0.00
38197;BME280;26543;51.976;4.616;2023-02-13T12:24:04;52601.91;;;-140.72;0.00
38197;BME280;26543;51.976;4.616;2023-02-13T12:26:43;52541.03;;;-140.72;0.00
38197;BME280;26543;51.976;4.616;2023-02-13T12:29:46;52589.72;;;-140.72;0.00
38197;BME280;26543;51.976;4.616;2023-02-13T12:42:55;52658.72;;;-140.72;0.00
38197;BME280;26543;51.976;4.616;2023-02-13T12:56:29;52543.03;;;-140.72;0.00
38197;BME280;26543;51.976;4.616;2023-02-13T13:04:19;52453.75;;;-140.72;0.00
38197;BME280;26543;51.976;4.616;2023-02-13T13:07:10;52455.78;;;-140.72;0.00
38197;BME280;26543;51.976;4.616;2023-02-13T13:09:52;52457.81;;;-140.72;0.00
38197;BME280;26543;51.976;4.616;2023-02-13T13:23:21;52415.22;;;-140.72;0.00
38197;BME280;26543;51.976;4.616;2023-02-13T13:28:54;52405.06;;;-140.72;0.00
38197;BME280;26543;51.976;4.616;2023-02-13T13:31:21;52427.38;;;-140.72;0.00
38197;BME280;26543;51.976;4.616;2023-02-13T13:33:50;52403.03;;;-140.72;0.00
38197;BME280;26543;51.976;4.616;2023-02-13T13:43:58;52374.63;;;-140.72;0.00
38197;BME280;26543;51.976;4.616;2023-02-13T13:47:15;52295.50;;;-140.72;0.00
38197;BME280;26543;51.976;4.616;2023-02-13T13:49:37;52313.75;;;-140.72;0.00
38197;BME280;26543;51.976;4.616;2023-02-13T13:52:33;52388.84;;;-140.72;0.00
38197;BME280;26543;51.976;4.616;2023-02-13T13:55:00;52378.69;;;-140.72;0.00
38197;BME280;26543;51.976;4.616;2023-02-13T14:02:39;52370.56;;;-140.72;0.00
38197;BME280;26543;51.976;4.616;2023-02-13T14:05:57;52480.16;;;-140.72;0.00
38197;BME280;26543;51.976;4.616;2023-02-13T14:11:25;52382.75;;;-140.72;0.00
38197;BME280;26543;51.976;4.616;2023-02-13T14:13:51;52423.31;;;-140.72;0.00
38197;BME280;26543;51.976;4.616;2023-02-13T14:16:41;52520.72;;;-140.72;0.00
38197;BME280;26543;51.976;4.616;2023-02-13T14:19:28;52437.53;;;-140.72;0.00
38197;BME280;26543;51.976;4.616;2023-02-13T14:21:55;52474.06;;;-140.72;0.00
38197;BME280;26543;51.976;4.616;2023-02-13T14:24:40;52502.47;;;-140.72;0.00
38197;BME280;26543;51.976;4.616;2023-02-13T14:27:19;52553.19;;;-140.72;0.00
38197;BME280;26543;51.976;4.616;2023-02-13T14:29:46;52512.59;;;-140.72;0.00
38197;BME280;26543;51.976;4.616;2023-02-13T14:32:32;52539.00;;;-140.72;0.00
38197;BME280;26543;51.976;4.616;2023-02-13T14:35:13;52545.06;;;-140.72;0.00
38197;BME280;26543;51.976;4.616;2023-02-13T14:37:59;52610.00;;;-140.72;0.00
38197;BME280;26543;51.976;4.616;2023-02-13T14:45:50;52599.88;;;-140.72;0.00
38197;BME280;26543;51.976;4.616;2023-02-13T14:48:19;52599.88;;;-140.72;0.00
38197;BME280;26543;51.976;4.616;2023-02-13T14:50:49;52642.47;;;-140.72;0.00
38197;BME280;26543;51.976;4.616;2023-02-13T14:53:26;52618.13;;;-140.72;0.00
38197;BME280;26543;51.976;4.616;2023-02-13T14:56:04;52636.38;;;-140.72;0.00
38197;BME280;26543;51.976;4.616;2023-02-13T14:58:32;52607.97;;;-140.72;0.00
38197;BME280;26543;51.976;4.616;2023-02-13T15:01:04;52530.88;;;-140.72;0.00
38197;BME280;26543;51.976;4.616;2023-02-13T15:03:35;52545.06;;;-140.72;0.00
38197;BME280;26543;51.976;4.616;2023-02-13T15:06:06;52557.25;;;-140.72;0.00
38197;BME280;26543;51.976;4.616;2023-02-13T15:08:41;52520.72;;;-140.72;0.00
38197;BME280;26543;51.976;4.616;2023-02-13T15:11:11;52520.72;;;-140.72;0.00
38197;BME280;26543;51.976;4.616;2023-02-13T15:14:14;52591.75;;;-140.72;0.00
38197;BME280;26543;51.976;4.616;2023-02-13T15:16:40;52624.22;;;-140.72;0.00
38197;BME280;26543;51.976;4.616;2023-02-13T15:19:13;52577.53;;;-140.72;0.00
38197;BME280;26543;51.976;4.616;2023-02-13T15:22:14;52614.06;;;-140.72;0.00
38197;BME280;26543;51.976;4.616;2023-02-13T15:24:43;52652.63;;;-140.72;0.00
38197;BME280;26543;51.976;4.616;2023-02-13T15:27:37;52711.47;;;-140.72;0.00
38197;BME280;26543;51.976;4.616;2023-02-13T15:30:34;52735.81;;;-140.72;0.00
38197;BME280;26543;51.976;4.616;2023-02-13T15:33:23;52798.72;;;-140.72;0.00
38197;BME280;26543;51.976;4.616;2023-02-13T15:35:58;52806.84;;;-140.72;0.00